createdAt,value
2024-01-07T00:00:17.228Z,100.00
2024-01-07T00:02:20.928Z,100.00
2024-01-07T00:04:23.983Z,100.00
2024-01-07T00:06:25.627Z,100.00
2024-01-07T00:08:27.175Z,100.00
2024-01-07T00:10:28.694Z,100.00
2024-01-07T00:12:30.369Z,100.00
2024-01-07T00:14:31.969Z,100.00
2024-01-07T00:16:33.490Z,100.00
2024-01-07T00:18:35.160Z,100.00
2024-01-07T00:20:38.080Z,100.00
2024-01-07T00:22:39.594Z,100.00
2024-01-07T00:24:41.175Z,100.00
2024-01-07T00:26:42.866Z,100.00
2024-01-07T00:28:44.467Z,100.00
2024-01-07T00:30:46.034Z,100.00
2024-01-07T00:32:47.623Z,100.00
2024-01-07T00:34:51.178Z,100.00
2024-01-07T00:36:55.807Z,100.00
2024-01-07T00:38:57.344Z,100.00
2024-01-07T00:40:58.892Z,100.00
2024-01-07T00:43:00.438Z,100.00
2024-01-07T00:45:02.083Z,100.00
2024-01-07T00:47:04.104Z,100.00
2024-01-07T00:49:05.773Z,100.00
2024-01-07T00:51:07.310Z,100.00
2024-01-07T00:53:10.185Z,100.00
2024-01-07T00:55:11.743Z,100.00
2024-01-07T00:57:13.460Z,100.00
2024-01-07T00:59:14.953Z,100.00
2024-01-07T01:01:16.738Z,100.00
2024-01-07T01:03:18.336Z,100.00
2024-01-07T01:05:20.052Z,100.00
2024-01-07T01:07:21.669Z,100.00
2024-01-07T01:09:24.570Z,100.00
2024-01-07T01:11:26.104Z,100.00
2024-01-07T01:13:27.655Z,100.00
2024-01-07T01:15:29.219Z,100.00
2024-01-07T01:17:31.362Z,100.00
2024-01-07T01:19:33.054Z,100.00
2024-01-07T01:21:34.714Z,100.00
2024-01-07T01:23:36.307Z,100.00
2024-01-07T01:25:39.266Z,100.00
2024-01-07T01:27:40.919Z,100.00
2024-01-07T01:29:42.501Z,100.00
2024-01-07T01:31:44.134Z,100.00
2024-01-07T01:33:45.927Z,100.00
2024-01-07T01:35:47.544Z,100.00
2024-01-07T01:37:49.173Z,100.00
2024-01-07T01:39:50.802Z,100.00
2024-01-07T01:41:53.688Z,100.00
2024-01-07T01:43:59.053Z,100.00
2024-01-07T01:46:00.881Z,100.00
2024-01-07T01:48:02.687Z,100.00
2024-01-07T01:50:05.638Z,100.00
2024-01-07T01:52:07.364Z,100.00
2024-01-07T01:54:09.098Z,100.00
2024-01-07T01:56:10.741Z,100.00
2024-01-07T01:58:14.320Z,100.00
2024-01-07T02:00:16.573Z,100.00
2024-01-07T02:02:18.335Z,100.00
2024-01-07T02:04:20.056Z,100.00
2024-01-07T02:06:22.724Z,100.00
2024-01-07T02:08:26.064Z,100.00
2024-01-07T02:10:27.586Z,100.00
2024-01-07T02:12:29.217Z,100.00
2024-01-07T02:14:32.091Z,100.00
2024-01-07T02:16:33.999Z,100.00
2024-01-07T02:18:35.851Z,100.00
2024-01-07T02:20:37.492Z,100.00
2024-01-07T02:22:39.054Z,100.00
2024-01-07T02:24:41.987Z,100.00
2024-01-07T02:26:43.830Z,100.00
2024-01-07T02:28:45.663Z,100.00
2024-01-07T02:30:47.608Z,100.00
2024-01-07T02:32:49.478Z,100.00
2024-01-07T02:34:51.342Z,100.00
2024-01-07T02:36:53.306Z,100.00
2024-01-07T02:38:55.156Z,100.00
2024-01-07T02:40:58.168Z,100.00
2024-01-07T02:42:59.923Z,100.00
2024-01-07T02:45:01.696Z,100.00
2024-01-07T02:47:04.051Z,100.00
2024-01-07T02:49:05.901Z,100.00
2024-01-07T02:51:09.354Z,100.00
2024-01-07T02:53:10.912Z,100.00
2024-01-07T02:55:12.965Z,100.00
2024-01-07T02:57:15.957Z,100.00
2024-01-07T02:59:17.642Z,100.00
2024-01-07T03:01:22.541Z,100.00
2024-01-07T03:03:24.730Z,100.00
2024-01-07T03:05:26.724Z,100.00
2024-01-07T03:07:29.008Z,100.00
2024-01-07T03:09:30.546Z,100.00
2024-01-07T03:11:32.075Z,100.00
2024-01-07T03:13:35.140Z,100.00
2024-01-07T03:15:36.734Z,100.00
2024-01-07T03:17:38.378Z,100.00
2024-01-07T03:19:40.021Z,100.00
2024-01-07T03:21:41.566Z,100.00
2024-01-07T03:23:43.140Z,100.00
2024-01-07T03:25:44.672Z,100.00
2024-01-07T03:27:46.169Z,100.00
2024-01-07T03:29:49.078Z,100.00
2024-01-07T03:31:50.784Z,100.00
2024-01-07T03:33:52.542Z,100.00
2024-01-07T03:35:54.169Z,100.00
2024-01-07T03:37:55.681Z,100.00
2024-01-07T03:39:57.417Z,100.00
2024-01-07T03:41:58.980Z,100.00
2024-01-07T03:44:00.638Z,100.00
2024-01-07T03:46:03.628Z,100.00
2024-01-07T03:48:05.772Z,100.00
2024-01-07T03:50:07.743Z,100.00
2024-01-07T03:52:09.850Z,100.00
2024-01-07T03:54:11.465Z,100.00
2024-01-07T03:56:13.025Z,100.00
2024-01-07T03:58:14.610Z,100.00
2024-01-07T04:00:16.375Z,100.00
2024-01-07T04:02:19.274Z,100.00
2024-01-07T04:04:20.918Z,100.00
2024-01-07T04:06:22.486Z,100.00
2024-01-07T04:08:24.054Z,100.00
2024-01-07T04:10:25.588Z,100.00
2024-01-07T04:12:27.209Z,100.00
2024-01-07T04:14:28.780Z,100.00
2024-01-07T04:16:30.468Z,100.00
2024-01-07T04:18:33.513Z,100.00
2024-01-07T04:20:35.111Z,100.00
2024-01-07T04:22:36.660Z,100.00
2024-01-07T04:24:41.711Z,100.00
2024-01-07T04:26:43.260Z,100.00
2024-01-07T04:28:45.463Z,100.00
2024-01-07T04:30:47.048Z,100.00
2024-01-07T04:32:48.799Z,100.00
2024-01-07T04:34:51.856Z,100.00
2024-01-07T04:36:53.488Z,100.00
2024-01-07T04:38:55.025Z,100.00
2024-01-07T04:40:56.592Z,100.00
2024-01-07T04:42:58.192Z,100.00
2024-01-07T04:44:59.786Z,100.00
2024-01-07T04:47:01.350Z,100.00
2024-01-07T04:49:03.000Z,100.00
2024-01-07T04:51:06.031Z,100.00
2024-01-07T04:53:07.529Z,100.00
2024-01-07T04:55:09.345Z,100.00
2024-01-07T04:57:10.944Z,100.00
2024-01-07T04:59:12.454Z,100.00
2024-01-07T05:01:14.080Z,100.00
2024-01-07T05:03:15.691Z,100.00
2024-01-07T05:05:17.294Z,100.00
2024-01-07T05:07:20.272Z,100.00
2024-01-07T05:09:21.859Z,100.00
2024-01-07T05:11:23.404Z,100.00
2024-01-07T05:13:24.907Z,100.00
2024-01-07T05:15:26.499Z,100.00
2024-01-07T05:17:29.828Z,100.00
2024-01-07T05:19:31.384Z,100.00
2024-01-07T05:21:32.969Z,100.00
2024-01-07T05:23:35.882Z,100.00
2024-01-07T05:25:37.412Z,100.00
2024-01-07T05:27:38.998Z,100.00
2024-01-07T05:29:40.565Z,100.00
2024-01-07T05:31:42.271Z,100.00
2024-01-07T05:33:44.441Z,100.00
2024-01-07T05:35:46.014Z,100.00
2024-01-07T05:37:47.557Z,100.00
2024-01-07T05:39:50.489Z,100.00
2024-01-07T05:41:52.036Z,100.00
2024-01-07T05:43:53.598Z,100.00
2024-01-07T05:45:55.132Z,100.00
2024-01-07T05:47:56.739Z,100.00
2024-01-07T05:49:58.405Z,100.00
2024-01-07T05:52:00.049Z,100.00
2024-01-07T05:54:01.576Z,100.00
2024-01-07T05:56:05.047Z,100.00
2024-01-07T05:58:06.709Z,100.00
2024-01-07T06:00:09.252Z,100.00
2024-01-07T06:02:11.076Z,100.00
2024-01-07T06:04:12.709Z,100.00
2024-01-07T06:06:14.913Z,100.00
2024-01-07T06:08:16.529Z,100.00
2024-01-07T06:10:18.103Z,100.00
2024-01-07T06:12:21.008Z,100.00
2024-01-07T06:14:22.683Z,100.00
2024-01-07T06:16:24.193Z,100.00
2024-01-07T06:18:25.905Z,100.00
2024-01-07T06:20:27.578Z,100.00
2024-01-07T06:22:29.084Z,100.00
2024-01-07T06:24:30.612Z,100.00
2024-01-07T06:26:32.205Z,100.00
2024-01-07T06:28:35.062Z,100.00
2024-01-07T06:30:36.806Z,100.00
2024-01-07T06:32:38.455Z,100.00
2024-01-07T06:34:40.029Z,100.00
2024-01-07T06:36:41.829Z,100.00
2024-01-07T06:38:43.378Z,100.00
2024-01-07T06:40:44.871Z,100.00
2024-01-07T06:42:46.568Z,100.00
2024-01-07T06:44:49.458Z,100.00
2024-01-07T06:46:51.020Z,100.00
2024-01-07T06:48:52.720Z,100.00
2024-01-07T06:50:54.291Z,100.00
2024-01-07T06:52:55.772Z,100.00
2024-01-07T06:54:57.317Z,100.00
2024-01-07T06:56:58.931Z,100.00
2024-01-07T06:59:00.553Z,100.00
2024-01-07T07:01:03.872Z,100.00
2024-01-07T07:03:05.611Z,100.00
2024-01-07T07:05:07.847Z,100.00
2024-01-07T07:07:09.624Z,100.00
2024-01-07T07:09:11.207Z,100.00
2024-01-07T07:11:12.801Z,100.00
2024-01-07T07:13:14.342Z,100.00
2024-01-07T07:15:15.880Z,100.00
2024-01-07T07:17:18.808Z,100.00
2024-01-07T07:19:20.428Z,100.00
2024-01-07T07:21:21.979Z,100.00
2024-01-07T07:23:23.509Z,100.00
2024-01-07T07:25:25.148Z,100.00
2024-01-07T07:27:26.936Z,100.00
2024-01-07T07:29:28.465Z,100.00
2024-01-07T07:31:30.083Z,100.00
2024-01-07T07:33:33.144Z,100.00
2024-01-07T07:35:34.829Z,100.00
2024-01-07T07:37:36.486Z,100.00
2024-01-07T07:39:38.152Z,100.00
2024-01-07T07:41:39.757Z,100.00
2024-01-07T07:43:41.420Z,100.00
2024-01-07T07:45:43.055Z,100.00
2024-01-07T07:47:45.493Z,100.00
2024-01-07T07:49:48.707Z,100.00
2024-01-07T07:51:50.354Z,100.00
2024-01-07T07:53:51.929Z,100.00
2024-01-07T07:55:53.436Z,100.00
2024-01-07T07:57:55.080Z,100.00
2024-01-07T07:59:56.675Z,100.00
2024-01-07T08:01:58.366Z,100.00
2024-01-07T08:04:00.078Z,100.00
2024-01-07T08:06:03.296Z,100.00
2024-01-07T08:08:05.779Z,100.00
2024-01-07T08:10:08.549Z,100.00
2024-01-07T08:12:10.195Z,100.00
2024-01-07T08:14:11.736Z,100.00
2024-01-07T08:16:13.359Z,100.00
2024-01-07T08:18:14.987Z,100.00
2024-01-07T08:20:16.774Z,100.00
2024-01-07T08:22:19.723Z,100.00
2024-01-07T08:24:21.261Z,100.00
2024-01-07T08:26:22.896Z,100.00
2024-01-07T08:28:24.515Z,100.00
2024-01-07T08:30:26.073Z,100.00
2024-01-07T08:32:27.739Z,100.00
2024-01-07T08:34:29.486Z,100.00
2024-01-07T08:36:31.254Z,100.00
2024-01-07T08:38:34.154Z,100.00
2024-01-07T08:40:35.726Z,100.00
2024-01-07T08:42:37.679Z,100.00
2024-01-07T08:44:39.247Z,100.00
2024-01-07T08:46:40.744Z,100.00
2024-01-07T08:48:42.436Z,100.00
2024-01-07T08:50:44.089Z,100.00
2024-01-07T08:52:45.616Z,100.00
2024-01-07T08:54:48.511Z,100.00
2024-01-07T08:56:50.081Z,100.00
2024-01-07T08:58:51.630Z,100.00
2024-01-07T09:00:53.271Z,100.00
2024-01-07T09:02:54.857Z,100.00
2024-01-07T09:04:56.381Z,100.00
2024-01-07T09:06:57.895Z,100.00
2024-01-07T09:08:59.427Z,100.00
2024-01-07T09:11:04.661Z,100.00
2024-01-07T09:13:06.381Z,100.00
2024-01-07T09:15:08.789Z,100.00
2024-01-07T09:17:10.358Z,100.00
2024-01-07T09:19:14.535Z,100.00
2024-01-07T09:21:16.662Z,100.00
2024-01-07T09:23:18.196Z,100.00
2024-01-07T09:25:19.973Z,100.00
2024-01-07T09:27:22.925Z,100.00
2024-01-07T09:29:24.495Z,100.00
2024-01-07T09:31:26.168Z,100.00
2024-01-07T09:33:27.857Z,100.00
2024-01-07T09:35:29.509Z,100.00
2024-01-07T09:37:31.081Z,100.00
2024-01-07T09:39:32.614Z,100.00
2024-01-07T09:41:34.204Z,100.00
2024-01-07T09:43:37.268Z,100.00
2024-01-07T09:45:39.743Z,100.00
2024-01-07T09:47:42.611Z,100.00
2024-01-07T09:49:44.931Z,100.00
2024-01-07T09:51:46.690Z,100.00
2024-01-07T09:53:49.797Z,100.00
2024-01-07T09:55:55.736Z,100.00
2024-01-07T09:57:57.296Z,100.00
2024-01-07T10:00:01.223Z,100.00
2024-01-07T10:02:03.297Z,100.00
2024-01-07T10:04:05.268Z,100.00
2024-01-07T10:06:07.129Z,100.00
2024-01-07T10:08:08.925Z,100.00
2024-01-07T10:10:17.846Z,100.00
2024-01-07T10:12:23.880Z,100.00
2024-01-07T10:14:25.432Z,100.00
2024-01-07T10:16:28.285Z,100.00
2024-01-07T10:18:31.625Z,100.00
2024-01-07T10:20:33.907Z,100.00
2024-01-07T10:22:35.499Z,100.00
2024-01-07T10:24:38.129Z,100.00
2024-01-07T10:26:40.938Z,100.00
2024-01-07T10:28:42.477Z,100.00
2024-01-07T10:30:49.884Z,100.00
2024-01-07T10:32:56.732Z,100.00
2024-01-07T10:35:04.335Z,100.00
2024-01-07T10:37:06.886Z,100.00
2024-01-07T10:39:08.936Z,100.00
2024-01-07T10:41:12.268Z,100.00
2024-01-07T10:43:16.401Z,100.00
2024-01-07T10:45:17.814Z,100.00
2024-01-07T10:47:23.175Z,100.00
2024-01-07T10:49:27.544Z,100.00
2024-01-07T10:51:29.644Z,100.00
2024-01-07T10:53:34.789Z,100.00
2024-01-07T10:55:41.211Z,100.00
2024-01-07T10:57:44.440Z,100.00
2024-01-07T10:59:46.577Z,98.47
2024-01-07T11:01:48.233Z,98.17
2024-01-07T11:03:58.421Z,97.60
2024-01-07T11:06:10.338Z,96.21
2024-01-07T11:08:22.994Z,95.79
2024-01-07T11:10:38.715Z,96.45
2024-01-07T11:12:54.710Z,96.05
2024-01-07T11:14:56.243Z,97.88
2024-01-07T11:17:00.882Z,97.52
2024-01-07T11:19:02.634Z,96.76
2024-01-07T11:21:05.666Z,95.40
2024-01-07T11:23:27.602Z,95.76
2024-01-07T11:25:30.723Z,95.73
2024-01-07T11:27:33.088Z,94.26
2024-01-07T11:29:34.651Z,93.89
2024-01-07T11:31:46.724Z,95.44
2024-01-07T11:33:49.890Z,94.41
2024-01-07T11:35:58.233Z,95.43
2024-01-07T11:38:01.609Z,97.23
2024-01-07T11:40:07.821Z,96.68
2024-01-07T11:42:15.416Z,97.30
2024-01-07T11:44:16.947Z,95.92
2024-01-07T11:46:18.625Z,97.03
2024-01-07T11:48:20.457Z,95.36
2024-01-07T11:50:26.496Z,97.49
2024-01-07T11:52:28.019Z,94.59
2024-01-07T11:54:32.261Z,93.93
2024-01-07T11:56:33.983Z,95.78
2024-01-07T11:58:35.522Z,95.70
2024-01-07T12:00:37.345Z,95.56
2024-01-07T12:02:41.932Z,95.47
2024-01-07T12:04:43.516Z,96.24
2024-01-07T12:06:45.724Z,96.16
2024-01-07T12:08:47.546Z,95.58
2024-01-07T12:10:50.471Z,93.98
2024-01-07T12:12:53.717Z,94.17
2024-01-07T12:14:55.903Z,93.47
2024-01-07T12:16:57.519Z,93.59
2024-01-07T12:18:59.163Z,92.54
2024-01-07T12:21:01.176Z,93.47
2024-01-07T12:23:09.627Z,93.61
2024-01-07T12:25:11.369Z,93.61
2024-01-07T12:27:14.599Z,94.11
2024-01-07T12:29:16.707Z,94.14
2024-01-07T12:31:18.418Z,94.57
2024-01-07T12:33:20.545Z,94.17
2024-01-07T12:35:22.218Z,94.29
2024-01-07T12:37:23.784Z,94.92
2024-01-07T12:39:28.173Z,94.17
2024-01-07T12:41:30.252Z,93.11
2024-01-07T12:43:33.476Z,94.43
2024-01-07T12:45:35.103Z,95.10
2024-01-07T12:47:36.644Z,95.38
2024-01-07T12:49:38.283Z,95.78
2024-01-07T12:51:39.928Z,96.71
2024-01-07T12:53:41.507Z,98.22
2024-01-07T12:55:43.025Z,95.80
2024-01-07T12:57:44.548Z,95.58
2024-01-07T12:59:47.442Z,96.19
2024-01-07T13:01:49.237Z,95.75
2024-01-07T13:03:51.132Z,97.51
2024-01-07T13:05:52.897Z,97.84
2024-01-07T13:08:00.988Z,96.90
2024-01-07T13:10:02.653Z,97.70
2024-01-07T13:12:04.720Z,98.23
2024-01-07T13:14:06.468Z,98.33
2024-01-07T13:16:09.865Z,98.08
2024-01-07T13:18:12.105Z,97.03
2024-01-07T13:20:14.036Z,97.22
2024-01-07T13:22:15.655Z,97.81
2024-01-07T13:24:17.632Z,98.89
2024-01-07T13:26:20.335Z,99.08
2024-01-07T13:28:23.576Z,96.27
2024-01-07T13:30:26.712Z,95.98
2024-01-07T13:32:30.176Z,97.20
2024-01-07T13:34:31.962Z,97.38
2024-01-07T13:36:34.255Z,97.47
2024-01-07T13:38:35.896Z,98.36
2024-01-07T13:40:37.677Z,98.10
2024-01-07T13:42:39.266Z,98.59
2024-01-07T13:44:40.866Z,96.88
2024-01-07T13:46:42.445Z,96.03
2024-01-07T13:48:45.449Z,97.35
2024-01-07T13:50:47.032Z,96.33
2024-01-07T13:52:48.696Z,96.41
2024-01-07T13:54:51.507Z,94.48
2024-01-07T13:56:53.858Z,95.44
2024-01-07T13:58:55.655Z,94.39
2024-01-07T14:00:57.315Z,94.48
2024-01-07T14:02:58.990Z,94.62
2024-01-07T14:05:02.011Z,94.68
2024-01-07T14:07:03.861Z,94.69
2024-01-07T14:09:05.479Z,94.82
2024-01-07T14:11:07.085Z,92.75
2024-01-07T14:13:08.933Z,91.36
2024-01-07T14:15:10.537Z,91.52
2024-01-07T14:17:12.133Z,91.63
2024-01-07T14:19:14.057Z,92.11
2024-01-07T14:21:17.013Z,91.22
2024-01-07T14:23:18.592Z,91.74
2024-01-07T14:25:20.310Z,91.87
2024-01-07T14:27:21.857Z,93.00
2024-01-07T14:29:23.828Z,93.20
2024-01-07T14:31:25.458Z,92.57
2024-01-07T14:33:27.180Z,92.87
2024-01-07T14:35:28.839Z,93.07
2024-01-07T14:37:31.868Z,93.63
2024-01-07T14:39:33.554Z,92.50
2024-01-07T14:41:46.888Z,94.01
2024-01-07T14:43:48.660Z,94.22
2024-01-07T14:45:50.292Z,93.30
2024-01-07T14:47:51.998Z,92.89
2024-01-07T14:49:53.562Z,93.28
2024-01-07T14:51:55.421Z,92.35
2024-01-07T14:53:58.463Z,92.69
2024-01-07T14:56:00.025Z,94.19
2024-01-07T14:58:01.630Z,92.68
2024-01-07T15:00:04.263Z,92.53
2024-01-07T15:02:06.527Z,92.96
2024-01-07T15:04:08.438Z,92.31
2024-01-07T15:06:10.039Z,93.73
2024-01-07T15:08:11.554Z,94.05
2024-01-07T15:10:17.607Z,94.45
2024-01-07T15:12:19.319Z,95.59
2024-01-07T15:14:20.902Z,95.77
2024-01-07T15:16:22.462Z,97.05
2024-01-07T15:18:24.280Z,96.38
2024-01-07T15:20:25.987Z,97.29
2024-01-07T15:22:27.623Z,96.22
2024-01-07T15:24:29.263Z,96.47
2024-01-07T15:26:32.259Z,96.00
2024-01-07T15:28:33.949Z,96.74
2024-01-07T15:30:35.684Z,97.93
2024-01-07T15:32:37.354Z,96.61
2024-01-07T15:34:39.082Z,96.69
2024-01-07T15:36:40.742Z,97.54
2024-01-07T15:38:42.257Z,95.78
2024-01-07T15:40:43.965Z,94.91
2024-01-07T15:42:46.896Z,94.95
2024-01-07T15:44:49.760Z,95.46
2024-01-07T15:46:52.698Z,97.63
2024-01-07T15:48:58.834Z,98.06
2024-01-07T15:51:02.193Z,98.66
2024-01-07T15:53:06.844Z,99.40
2024-01-07T15:55:09.753Z,100.00
2024-01-07T15:57:11.374Z,99.78
2024-01-07T15:59:14.300Z,99.54
2024-01-07T16:01:15.946Z,100.00
2024-01-07T16:03:17.604Z,100.00
2024-01-07T16:05:19.290Z,99.46
2024-01-07T16:07:20.989Z,100.00
2024-01-07T16:09:22.499Z,99.27
2024-01-07T16:11:24.148Z,100.00
2024-01-07T16:13:26.015Z,99.31
2024-01-07T16:15:29.006Z,100.00
2024-01-07T16:17:30.760Z,100.00
2024-01-07T16:19:32.527Z,99.50
2024-01-07T16:21:34.259Z,99.75
2024-01-07T16:23:35.823Z,100.00
2024-01-07T16:25:37.363Z,100.00
2024-01-07T16:27:39.020Z,100.00
2024-01-07T16:29:45.308Z,100.00
2024-01-07T16:31:49.409Z,99.79
2024-01-07T16:33:51.101Z,99.27
2024-01-07T16:35:52.737Z,98.81
2024-01-07T16:37:54.339Z,98.89
2024-01-07T16:39:56.031Z,98.68
2024-01-07T16:41:57.576Z,99.59
2024-01-07T16:43:59.109Z,99.93
2024-01-07T16:46:00.945Z,100.00
2024-01-07T16:48:04.707Z,100.00
2024-01-07T16:52:11.605Z,99.57
2024-01-07T16:54:13.308Z,100.00
2024-01-07T16:56:17.047Z,100.00
2024-01-07T16:58:18.821Z,99.46
2024-01-07T17:00:20.794Z,98.62
2024-01-07T17:02:23.040Z,98.16
2024-01-07T17:04:26.049Z,99.31
2024-01-07T17:06:27.629Z,99.96
2024-01-07T17:08:29.252Z,99.62
2024-01-07T17:10:30.794Z,100.00
2024-01-07T17:12:32.331Z,100.00
2024-01-07T17:14:33.825Z,100.00
2024-01-07T17:16:35.384Z,100.00
2024-01-07T17:18:37.039Z,100.00
2024-01-07T17:20:40.001Z,100.00
2024-01-07T17:22:42.525Z,100.00
2024-01-07T17:24:44.135Z,100.00
2024-01-07T17:26:45.699Z,100.00
2024-01-07T17:28:48.252Z,100.00
2024-01-07T17:30:49.864Z,100.00
2024-01-07T17:32:54.262Z,99.85
2024-01-07T17:34:56.886Z,100.00
2024-01-07T17:37:00.218Z,100.00
2024-01-07T17:39:01.866Z,100.00
2024-01-07T17:41:03.518Z,100.00
2024-01-07T17:43:05.081Z,98.54
2024-01-07T17:45:07.209Z,98.56
2024-01-07T17:47:08.795Z,98.65
2024-01-07T17:49:10.429Z,98.57
2024-01-07T17:51:11.978Z,99.03
2024-01-07T17:53:14.886Z,100.00
2024-01-07T17:55:16.631Z,100.00
2024-01-07T17:57:18.164Z,99.76
2024-01-07T17:59:19.763Z,100.00
2024-01-07T18:01:21.341Z,100.00
2024-01-07T18:03:22.923Z,100.00
2024-01-07T18:05:24.651Z,100.00
2024-01-07T18:07:26.312Z,100.00
2024-01-07T18:09:29.220Z,100.00
2024-01-07T18:11:30.798Z,100.00
2024-01-07T18:13:32.420Z,100.00
2024-01-07T18:15:34.044Z,100.00
2024-01-07T18:17:35.647Z,100.00
2024-01-07T18:19:37.374Z,100.00
2024-01-07T18:21:38.919Z,100.00
2024-01-07T18:23:40.422Z,99.93
2024-01-07T18:25:43.432Z,99.69
2024-01-07T18:27:45.029Z,99.94
2024-01-07T18:29:46.583Z,100.00
2024-01-07T18:31:48.163Z,100.00
2024-01-07T18:33:49.791Z,99.77
2024-01-07T18:35:51.530Z,99.48
2024-01-07T18:37:53.143Z,97.87
2024-01-07T18:39:54.712Z,97.09
2024-01-07T18:41:57.645Z,96.93
2024-01-07T18:43:59.227Z,98.81
2024-01-07T18:46:00.802Z,98.76
2024-01-07T18:48:02.460Z,98.54
2024-01-07T18:50:04.654Z,97.95
2024-01-07T18:52:06.564Z,99.05
2024-01-07T18:54:08.110Z,97.30
2024-01-07T18:56:10.222Z,98.83
2024-01-07T18:58:13.675Z,98.18
2024-01-07T19:00:16.182Z,98.26
2024-01-07T19:02:17.778Z,97.37
2024-01-07T19:04:19.442Z,97.68
2024-01-07T19:06:20.985Z,97.74
2024-01-07T19:08:22.727Z,96.29
2024-01-07T19:10:24.307Z,94.53
2024-01-07T19:12:25.915Z,95.62
2024-01-07T19:14:28.817Z,96.21
2024-01-07T19:16:30.350Z,95.40
2024-01-07T19:18:32.745Z,95.06
2024-01-07T19:20:34.437Z,95.62
2024-01-07T19:22:36.082Z,96.09
2024-01-07T19:24:37.713Z,96.04
2024-01-07T19:26:40.291Z,94.74
2024-01-07T19:28:42.932Z,95.17
2024-01-07T19:30:46.070Z,94.61
2024-01-07T19:32:47.751Z,94.08
2024-01-07T19:34:49.400Z,93.82
2024-01-07T19:36:51.110Z,94.92
2024-01-07T19:38:52.609Z,95.79
2024-01-07T19:40:54.130Z,94.55
2024-01-07T19:42:55.760Z,95.22
2024-01-07T19:44:57.289Z,94.03
2024-01-07T19:47:00.212Z,94.26
2024-01-07T19:49:03.481Z,94.94
2024-01-07T19:51:05.783Z,95.07
2024-01-07T19:53:13.405Z,95.76
2024-01-07T19:55:17.904Z,95.51
2024-01-07T19:57:19.394Z,95.08
2024-01-07T19:59:21.127Z,95.16
2024-01-07T20:01:22.853Z,95.49
2024-01-07T20:03:25.808Z,94.69
2024-01-07T20:05:27.520Z,94.61
2024-01-07T20:07:29.227Z,95.33
2024-01-07T20:09:30.785Z,94.70
2024-01-07T20:11:32.774Z,94.59
2024-01-07T20:13:35.217Z,95.11
2024-01-07T20:15:36.968Z,94.64
2024-01-07T20:17:38.772Z,94.18
2024-01-07T20:19:41.754Z,94.01
2024-01-07T20:21:43.653Z,92.92
2024-01-07T20:23:45.158Z,94.71
2024-01-07T20:25:46.992Z,95.05
2024-01-07T20:27:49.970Z,95.60
2024-01-07T20:29:52.048Z,95.73
2024-01-07T20:31:53.807Z,94.54
2024-01-07T20:33:55.579Z,93.10
2024-01-07T20:35:58.768Z,93.38
2024-01-07T20:38:04.181Z,93.68
2024-01-07T20:40:08.291Z,95.03
2024-01-07T20:42:18.707Z,93.57
2024-01-07T20:44:29.131Z,94.92
2024-01-07T20:46:30.941Z,93.75
2024-01-07T20:48:33.001Z,92.64
2024-01-07T20:50:35.766Z,93.32
2024-01-07T20:52:38.688Z,95.93
2024-01-07T20:54:40.221Z,93.99
2024-01-07T20:56:43.010Z,93.76
2024-01-07T20:58:44.965Z,94.38
2024-01-07T21:00:46.625Z,92.71
2024-01-07T21:02:48.790Z,100.00
2024-01-07T21:04:50.902Z,99.59
2024-01-07T21:06:52.461Z,94.73
2024-01-07T21:08:55.408Z,94.38
2024-01-07T21:10:56.954Z,93.74
2024-01-07T21:12:59.137Z,92.54
2024-01-07T21:15:01.036Z,94.97
2024-01-07T21:17:02.576Z,94.97
2024-01-07T21:19:04.237Z,94.75
2024-01-07T21:21:06.113Z,94.93
2024-01-07T21:23:09.041Z,95.08
2024-01-07T21:25:12.239Z,95.64
2024-01-07T21:27:13.774Z,95.19
2024-01-07T21:29:15.383Z,95.89
2024-01-07T21:31:19.472Z,94.89
2024-01-07T21:33:21.455Z,95.51
2024-01-07T21:35:23.987Z,96.25
2024-01-07T21:37:25.873Z,95.45
2024-01-07T21:39:27.409Z,94.92
2024-01-07T21:41:30.357Z,96.43
2024-01-07T21:43:31.982Z,96.09
2024-01-07T21:45:33.535Z,95.45
2024-01-07T21:47:35.272Z,95.48
2024-01-07T21:49:36.865Z,93.86
2024-01-07T21:51:38.536Z,94.04
2024-01-07T21:53:40.114Z,94.49
2024-01-07T21:55:41.767Z,94.98
2024-01-07T21:57:44.692Z,93.33
2024-01-07T21:59:46.424Z,93.08
2024-01-07T22:01:48.264Z,93.54
2024-01-07T22:03:49.843Z,92.97
2024-01-07T22:05:52.090Z,93.66
2024-01-07T22:07:53.655Z,93.17
2024-01-07T22:09:55.418Z,91.69
2024-01-07T22:11:58.156Z,93.22
2024-01-07T22:14:01.158Z,93.61
2024-01-07T22:16:02.749Z,94.38
2024-01-07T22:18:04.872Z,92.20
2024-01-07T22:20:08.250Z,93.23
2024-01-07T22:22:09.809Z,93.16
2024-01-07T22:24:11.490Z,93.55
2024-01-07T22:26:13.107Z,93.20
2024-01-07T22:28:14.706Z,93.25
2024-01-07T22:30:17.963Z,94.24
2024-01-07T22:32:19.630Z,93.00
2024-01-07T22:34:21.274Z,92.61
2024-01-07T22:36:22.860Z,92.76
2024-01-07T22:38:24.499Z,93.38
2024-01-07T22:40:26.030Z,93.69
2024-01-07T22:42:27.617Z,93.99
2024-01-07T22:44:29.301Z,94.70
2024-01-07T22:46:32.258Z,94.64
2024-01-07T22:48:33.853Z,94.80
2024-01-07T22:50:35.552Z,95.14
2024-01-07T22:52:37.200Z,94.71
2024-01-07T22:54:39.811Z,94.38
2024-01-07T22:56:41.662Z,93.75
2024-01-07T22:58:43.232Z,93.99
2024-01-07T23:00:44.793Z,93.74
2024-01-07T23:02:47.833Z,94.54
2024-01-07T23:04:49.760Z,94.35
2024-01-07T23:06:51.451Z,94.13
2024-01-07T23:08:53.049Z,94.66
2024-01-07T23:10:54.713Z,94.87
2024-01-07T23:12:56.257Z,93.61
2024-01-07T23:14:57.872Z,93.66
2024-01-07T23:16:59.946Z,93.68
2024-01-07T23:19:03.236Z,94.17
2024-01-07T23:21:08.804Z,93.86
2024-01-07T23:23:12.283Z,93.62
2024-01-07T23:25:13.848Z,93.53
2024-01-07T23:27:15.403Z,93.89
2024-01-07T23:29:16.942Z,92.93
2024-01-07T23:31:18.588Z,93.36
2024-01-07T23:33:20.279Z,92.98
2024-01-07T23:35:23.236Z,92.68
2024-01-07T23:37:24.918Z,92.91
2024-01-07T23:39:26.436Z,92.91
2024-01-07T23:41:28.085Z,91.57
2024-01-07T23:43:29.771Z,91.39
2024-01-07T23:45:31.378Z,92.04
2024-01-07T23:47:35.561Z,91.49
2024-01-07T23:49:39.269Z,91.71
2024-01-07T23:51:42.124Z,91.94
2024-01-07T23:53:43.660Z,92.22
2024-01-07T23:55:45.264Z,91.84
2024-01-07T23:57:46.786Z,91.18
2024-01-07T23:59:48.436Z,89.67
